createdAt,value
2023-05-17T00:01:19.746Z,0.40
2023-05-17T00:03:47.726Z,0.40
2023-05-17T00:06:15.566Z,0.30
2023-05-17T00:08:43.481Z,0.30
2023-05-17T00:11:12.876Z,0.40
2023-05-17T00:13:41.257Z,0.30
2023-05-17T00:16:09.826Z,0.40
2023-05-17T00:18:37.830Z,0.30
2023-05-17T00:21:05.889Z,0.60
2023-05-17T00:23:33.777Z,0.50
2023-05-17T00:26:01.834Z,0.40
2023-05-17T00:28:31.084Z,0.43
2023-05-17T00:30:58.945Z,0.40
2023-05-17T00:33:26.817Z,0.30
2023-05-17T00:35:54.670Z,0.40
2023-05-17T00:38:22.494Z,0.30
2023-05-17T00:40:51.084Z,0.40
2023-05-17T00:43:19.001Z,0.40
2023-05-17T00:45:50.297Z,0.40
2023-05-17T00:48:19.201Z,0.40
2023-05-17T00:50:47.141Z,0.40
2023-05-17T00:53:16.411Z,0.40
2023-05-17T00:55:44.816Z,0.30
2023-05-17T00:58:12.841Z,0.40
2023-05-17T01:00:40.795Z,0.40
2023-05-17T01:03:10.231Z,0.43
2023-05-17T01:05:38.297Z,0.40
2023-05-17T01:08:06.644Z,0.40
2023-05-17T01:10:38.826Z,0.40
2023-05-17T01:13:11.244Z,0.50
2023-05-17T01:15:43.209Z,0.50
2023-05-17T01:18:19.464Z,0.30
2023-05-17T01:20:49.017Z,0.40
2023-05-17T01:23:33.052Z,0.33
2023-05-17T01:26:09.348Z,0.40
2023-05-17T01:28:40.222Z,0.40
2023-05-17T01:31:08.870Z,0.33
2023-05-17T01:33:36.990Z,0.50
2023-05-17T01:36:05.718Z,0.40
2023-05-17T01:38:33.720Z,0.30
2023-05-17T01:41:07.100Z,0.40
2023-05-17T01:43:43.567Z,0.40
2023-05-17T01:46:15.372Z,0.30
2023-05-17T01:48:49.015Z,0.43
2023-05-17T01:51:20.596Z,0.40
2023-05-17T01:53:50.396Z,0.40
2023-05-17T01:56:22.223Z,0.33
2023-05-17T01:58:53.786Z,0.40
2023-05-17T02:01:22.478Z,0.40
2023-05-17T02:03:50.799Z,0.33
2023-05-17T02:06:18.867Z,0.30
2023-05-17T02:08:46.731Z,0.30
2023-05-17T02:11:14.646Z,0.40
2023-05-17T02:13:42.967Z,0.30
2023-05-17T02:16:13.473Z,0.37
2023-05-17T02:18:41.480Z,0.40
2023-05-17T02:21:09.968Z,0.37
2023-05-17T02:23:38.043Z,0.40
2023-05-17T02:26:05.984Z,0.40
2023-05-17T02:28:34.196Z,0.40
2023-05-17T02:31:02.184Z,0.40
2023-05-17T02:33:31.576Z,0.50
2023-05-17T02:35:59.540Z,0.40
2023-05-17T02:38:27.546Z,0.37
2023-05-17T02:40:55.371Z,0.40
2023-05-17T02:43:23.204Z,0.37
2023-05-17T02:45:51.075Z,0.40
2023-05-17T02:48:18.974Z,0.40
2023-05-17T02:50:48.329Z,0.40
2023-05-17T02:53:16.247Z,0.30
2023-05-17T02:55:44.205Z,0.30
2023-05-17T02:58:12.122Z,0.47
2023-05-17T03:00:41.126Z,0.40
2023-05-17T03:03:09.068Z,0.30
2023-05-17T03:05:36.963Z,0.40
2023-05-17T03:08:06.217Z,0.30
2023-05-17T03:10:34.138Z,0.30
2023-05-17T03:13:02.250Z,0.40
2023-05-17T03:15:30.652Z,0.40
2023-05-17T03:17:58.813Z,0.33
2023-05-17T03:20:27.199Z,0.30
2023-05-17T03:22:55.129Z,0.40
2023-05-17T03:25:24.396Z,0.40
2023-05-17T03:27:52.564Z,0.30
2023-05-17T03:30:20.656Z,0.30
2023-05-17T03:32:48.620Z,0.40
2023-05-17T03:35:16.780Z,0.30
2023-05-17T03:37:44.673Z,0.40
2023-05-17T03:40:12.954Z,0.30
2023-05-17T03:42:42.199Z,0.40
2023-05-17T03:45:10.723Z,0.30
2023-05-17T03:47:38.918Z,0.40
2023-05-17T03:50:08.147Z,0.40
2023-05-17T03:52:37.146Z,0.20
2023-05-17T03:55:06.018Z,0.50
2023-05-17T03:57:33.909Z,0.40
2023-05-17T04:00:06.519Z,0.30
2023-05-17T04:02:34.472Z,0.30
2023-05-17T04:05:02.460Z,0.30
2023-05-17T04:07:30.538Z,0.30
2023-05-17T04:09:59.984Z,0.30
2023-05-17T04:12:27.961Z,0.40
2023-05-17T04:14:55.880Z,0.40
2023-05-17T04:17:25.109Z,0.30
2023-05-17T04:19:53.068Z,0.43
2023-05-17T04:22:23.600Z,0.50
2023-05-17T04:24:51.481Z,0.40
2023-05-17T04:27:19.624Z,0.60
2023-05-17T04:29:47.508Z,0.70
2023-05-17T04:32:15.425Z,0.60
2023-05-17T04:34:45.915Z,0.50
2023-05-17T04:37:13.799Z,0.50
2023-05-17T04:39:41.705Z,0.50
2023-05-17T04:42:10.241Z,0.40
2023-05-17T04:44:38.149Z,0.40
2023-05-17T04:47:06.476Z,0.50
2023-05-17T04:49:34.652Z,0.50
2023-05-17T04:52:06.104Z,0.53
2023-05-17T04:54:34.243Z,0.50
2023-05-17T04:57:02.256Z,0.50
2023-05-17T04:59:30.143Z,0.60
2023-05-17T05:01:58.184Z,0.50
2023-05-17T05:04:26.610Z,0.40
2023-05-17T05:06:54.496Z,0.50
2023-05-17T05:09:23.753Z,0.53
2023-05-17T05:11:51.636Z,1.00
2023-05-17T05:14:22.184Z,1.10
2023-05-17T05:16:50.063Z,0.80
2023-05-17T05:19:18.117Z,0.80
2023-05-17T05:21:46.227Z,0.67
2023-05-17T05:24:14.185Z,0.80
2023-05-17T05:26:44.816Z,0.53
2023-05-17T05:29:13.777Z,0.50
2023-05-17T05:31:45.339Z,0.43
2023-05-17T05:34:13.762Z,0.40
2023-05-17T05:36:41.834Z,0.50
2023-05-17T05:39:09.738Z,0.40
2023-05-17T05:41:37.821Z,0.53
2023-05-17T05:44:07.494Z,0.40
2023-05-17T05:46:35.468Z,0.50
2023-05-17T05:49:03.432Z,0.40
2023-05-17T05:51:31.677Z,0.60
2023-05-17T05:54:00.092Z,0.60
2023-05-17T05:56:28.273Z,0.70
2023-05-17T05:58:56.659Z,0.50
2023-05-17T06:01:26.327Z,0.60
2023-05-17T06:03:54.428Z,0.50
2023-05-17T06:06:22.719Z,0.50
2023-05-17T06:08:50.711Z,0.60
2023-05-17T06:11:20.545Z,0.80
2023-05-17T06:13:48.439Z,0.77
2023-05-17T06:16:16.332Z,0.73
2023-05-17T06:18:46.922Z,0.73
2023-05-17T06:21:16.354Z,0.80
2023-05-17T06:23:44.232Z,0.70
2023-05-17T06:26:12.195Z,0.60
2023-05-17T06:28:40.476Z,0.67
2023-05-17T06:31:08.425Z,0.70
2023-05-17T06:33:37.617Z,0.83
2023-05-17T06:36:07.895Z,0.70
2023-05-17T06:38:35.911Z,0.83
2023-05-17T06:41:03.803Z,1.00
2023-05-17T06:43:31.698Z,1.00
2023-05-17T06:45:59.555Z,0.70
2023-05-17T06:48:27.871Z,1.03
2023-05-17T06:50:55.840Z,0.70
2023-05-17T06:53:26.480Z,0.90
2023-05-17T06:55:54.500Z,0.90
2023-05-17T06:58:22.471Z,0.80
2023-05-17T07:00:50.546Z,0.80
2023-05-17T07:03:18.942Z,0.60
2023-05-17T07:05:49.927Z,0.57
2023-05-17T07:08:18.918Z,0.60
2023-05-17T07:10:48.352Z,0.50
2023-05-17T07:13:18.620Z,0.60
2023-05-17T07:15:46.705Z,0.60
2023-05-17T07:18:15.044Z,0.50
2023-05-17T07:20:43.035Z,0.60
2023-05-17T07:23:10.894Z,0.57
2023-05-17T07:25:40.527Z,0.50
2023-05-17T07:28:09.814Z,0.53
2023-05-17T07:30:38.284Z,0.70
2023-05-17T07:33:06.192Z,1.20
2023-05-17T07:35:35.694Z,1.10
2023-05-17T07:38:05.273Z,1.10
2023-05-17T07:40:33.150Z,0.87
2023-05-17T07:43:01.442Z,0.90
2023-05-17T07:45:32.280Z,1.00
2023-05-17T07:48:00.333Z,0.80
2023-05-17T07:50:28.837Z,0.70
2023-05-17T07:52:57.068Z,0.70
2023-05-17T07:55:25.798Z,0.90
2023-05-17T07:57:55.576Z,0.70
2023-05-17T08:00:25.367Z,0.70
2023-05-17T08:02:54.788Z,0.80
2023-05-17T08:05:23.560Z,0.70
2023-05-17T08:07:52.282Z,0.80
2023-05-17T08:10:20.342Z,0.70
2023-05-17T08:12:48.541Z,0.70
2023-05-17T08:15:16.560Z,0.70
2023-05-17T08:17:44.553Z,0.70
2023-05-17T08:20:17.604Z,0.70
2023-05-17T08:22:45.964Z,0.60
2023-05-17T08:25:14.305Z,0.50
2023-05-17T08:27:42.298Z,0.70
2023-05-17T08:30:14.849Z,0.77
2023-05-17T08:32:46.264Z,0.90
2023-05-17T08:35:15.775Z,0.90
2023-05-17T08:37:45.196Z,0.80
2023-05-17T08:40:20.109Z,0.73
2023-05-17T08:42:48.269Z,0.90
2023-05-17T08:45:16.627Z,0.90
2023-05-17T08:47:44.877Z,0.87
2023-05-17T08:50:14.360Z,0.70
2023-05-17T08:52:47.564Z,0.70
2023-05-17T08:55:16.757Z,0.73
2023-05-17T08:57:45.106Z,0.90
2023-05-17T09:00:14.782Z,0.90
2023-05-17T09:02:44.095Z,0.70
2023-05-17T09:05:14.208Z,0.60
2023-05-17T09:07:49.014Z,0.60
2023-05-17T09:10:17.486Z,0.60
2023-05-17T09:12:46.329Z,0.60
2023-05-17T09:15:16.104Z,0.70
2023-05-17T09:17:44.434Z,0.80
2023-05-17T09:20:13.031Z,0.50
2023-05-17T09:22:41.247Z,0.77
2023-05-17T09:25:10.883Z,0.63
2023-05-17T09:27:38.842Z,0.80
2023-05-17T09:30:13.230Z,0.80
2023-05-17T09:32:45.453Z,0.60
2023-05-17T09:35:13.650Z,0.60
2023-05-17T09:37:47.089Z,0.50
2023-05-17T09:40:25.569Z,0.60
2023-05-17T09:42:53.802Z,0.60
2023-05-17T09:45:24.933Z,0.70
2023-05-17T09:47:54.645Z,0.90
2023-05-17T09:50:25.977Z,0.60
2023-05-17T09:52:54.503Z,0.80
2023-05-17T09:55:29.778Z,0.67
2023-05-17T09:58:04.212Z,0.70
2023-05-17T10:00:32.479Z,0.80
2023-05-17T10:03:01.307Z,0.80
2023-05-17T10:05:29.688Z,0.70
2023-05-17T10:07:59.522Z,0.53
2023-05-17T10:10:29.487Z,0.43
2023-05-17T10:12:57.574Z,0.70
2023-05-17T10:15:26.028Z,0.63
2023-05-17T10:17:54.755Z,0.50
2023-05-17T10:20:23.065Z,0.50
2023-05-17T10:22:52.543Z,0.70
2023-05-17T10:25:21.797Z,0.50
2023-05-17T10:27:52.127Z,0.60
2023-05-17T10:30:23.667Z,0.50
2023-05-17T10:32:52.987Z,0.60
2023-05-17T10:35:21.267Z,0.60
2023-05-17T10:37:49.169Z,0.67
2023-05-17T10:40:18.249Z,0.53
2023-05-17T10:42:50.935Z,0.50
2023-05-17T10:45:21.644Z,0.60
2023-05-17T10:47:52.520Z,0.60
2023-05-17T10:50:23.927Z,0.60
2023-05-17T10:52:53.059Z,0.60
2023-05-17T10:55:25.063Z,0.50
2023-05-17T10:58:17.256Z,0.60
2023-05-17T11:00:48.284Z,0.60
2023-05-17T11:03:18.486Z,0.50
2023-05-17T11:06:23.452Z,0.53
2023-05-17T11:09:09.166Z,0.60
2023-05-17T11:11:38.398Z,0.50
2023-05-17T11:14:06.738Z,0.60
2023-05-17T11:16:39.017Z,0.50
2023-05-17T11:19:12.206Z,0.53
2023-05-17T11:21:47.440Z,0.40
2023-05-17T11:24:21.497Z,0.60
2023-05-17T11:26:51.939Z,0.50
2023-05-17T11:29:20.021Z,0.60
2023-05-17T11:31:52.639Z,0.47
2023-05-17T11:34:20.913Z,0.40
2023-05-17T11:36:53.100Z,0.60
2023-05-17T11:39:22.807Z,0.60
2023-05-17T11:41:53.450Z,0.60
2023-05-17T11:44:27.020Z,0.60
2023-05-17T11:47:04.178Z,0.60
2023-05-17T11:49:36.144Z,0.50
2023-05-17T11:52:05.039Z,0.60
2023-05-17T11:54:33.273Z,0.70
2023-05-17T11:57:04.219Z,0.67
2023-05-17T11:59:38.987Z,0.53
2023-05-17T12:02:08.549Z,0.60
2023-05-17T12:04:39.029Z,0.80
2023-05-17T12:07:09.992Z,0.50
2023-05-17T12:09:38.109Z,0.60
2023-05-17T12:12:08.698Z,0.50
2023-05-17T12:14:36.715Z,0.57
2023-05-17T12:17:07.271Z,0.50
2023-05-17T12:19:37.391Z,0.57
2023-05-17T12:22:12.613Z,0.60
2023-05-17T12:24:41.589Z,0.53
2023-05-17T12:27:09.761Z,0.70
2023-05-17T12:29:37.858Z,0.50
2023-05-17T12:32:07.991Z,0.50
2023-05-17T12:34:37.389Z,0.40
2023-05-17T12:37:10.189Z,0.60
2023-05-17T12:39:38.211Z,0.50
2023-05-17T12:42:06.514Z,0.43
2023-05-17T12:44:34.941Z,0.77
2023-05-17T12:47:04.402Z,0.60
2023-05-17T12:49:32.315Z,0.60
2023-05-17T12:52:05.250Z,0.50
2023-05-17T12:54:34.338Z,0.50
2023-05-17T12:57:12.838Z,0.50
2023-05-17T12:59:48.018Z,0.60
2023-05-17T13:02:16.805Z,0.50
2023-05-17T13:04:44.771Z,0.60
2023-05-17T13:07:23.004Z,0.60
2023-05-17T13:09:51.802Z,0.60
2023-05-17T13:12:21.231Z,0.50
2023-05-17T13:14:51.903Z,0.60
2023-05-17T13:17:21.664Z,0.60
2023-05-17T13:19:50.023Z,0.70
2023-05-17T13:22:19.415Z,0.70
2023-05-17T13:24:47.492Z,0.60
2023-05-17T13:27:15.579Z,0.60
2023-05-17T13:29:44.427Z,0.70
2023-05-17T13:32:13.837Z,0.50
2023-05-17T13:34:42.284Z,0.60
2023-05-17T13:37:12.352Z,0.60
2023-05-17T13:39:42.337Z,0.50
2023-05-17T13:42:10.997Z,0.50
2023-05-17T13:44:42.464Z,0.60
2023-05-17T13:47:10.333Z,0.53
2023-05-17T13:49:38.315Z,0.60
2023-05-17T13:52:09.535Z,0.50
2023-05-17T13:54:37.940Z,0.53
2023-05-17T13:57:08.250Z,0.60
2023-05-17T13:59:36.350Z,0.43
2023-05-17T14:02:04.347Z,0.43
2023-05-17T14:04:32.296Z,0.43
2023-05-17T14:07:00.335Z,0.37
2023-05-17T14:09:30.564Z,0.40
2023-05-17T14:12:00.369Z,0.40
2023-05-17T14:14:31.242Z,0.40
2023-05-17T14:16:59.243Z,0.60
2023-05-17T14:19:27.187Z,0.50
2023-05-17T14:21:55.352Z,0.50
2023-05-17T14:24:23.353Z,0.40
2023-05-17T14:26:51.693Z,0.43
2023-05-17T14:29:19.515Z,0.40
2023-05-17T14:31:48.760Z,0.30
2023-05-17T14:34:16.792Z,0.33
2023-05-17T14:36:44.698Z,0.40
2023-05-17T14:39:12.561Z,0.37
2023-05-17T14:41:41.165Z,0.30
2023-05-17T14:44:09.966Z,0.30
2023-05-17T14:46:37.838Z,0.40
2023-05-17T14:49:07.241Z,0.30
2023-05-17T14:51:35.139Z,0.30
2023-05-17T14:54:03.563Z,0.30
2023-05-17T14:56:32.192Z,0.30
2023-05-17T14:59:00.057Z,0.30
2023-05-17T15:01:28.034Z,0.30
2023-05-17T15:03:55.961Z,0.40
2023-05-17T15:06:26.228Z,0.40
2023-05-17T15:08:55.012Z,0.40
2023-05-17T15:11:23.761Z,0.40
2023-05-17T15:13:51.664Z,0.50
2023-05-17T15:16:19.758Z,0.30
2023-05-17T15:18:48.447Z,0.30
2023-05-17T15:21:17.666Z,0.50
2023-05-17T15:23:47.928Z,0.40
2023-05-17T15:26:15.816Z,0.50
2023-05-17T15:28:43.788Z,0.40
2023-05-17T15:31:11.798Z,0.30
2023-05-17T15:33:42.559Z,0.60
2023-05-17T15:36:11.280Z,0.50
2023-05-17T15:38:40.830Z,0.43
2023-05-17T15:41:13.019Z,0.50
2023-05-17T15:43:41.197Z,0.40
2023-05-17T15:46:09.468Z,0.40
2023-05-17T15:48:37.461Z,0.40
2023-05-17T15:51:05.473Z,0.40
2023-05-17T15:53:34.741Z,0.40
2023-05-17T15:56:02.614Z,0.50
2023-05-17T15:58:33.381Z,0.40
2023-05-17T16:01:04.673Z,0.40
2023-05-17T16:03:32.746Z,0.40
2023-05-17T16:06:01.027Z,0.40
2023-05-17T16:08:29.372Z,0.30
2023-05-17T16:10:57.457Z,0.40
2023-05-17T16:13:25.517Z,0.30
2023-05-17T16:15:55.495Z,0.40
2023-05-17T16:18:23.426Z,0.30
2023-05-17T16:20:58.589Z,0.40
2023-05-17T16:23:26.472Z,0.40
2023-05-17T16:25:55.975Z,0.30
2023-05-17T16:28:24.334Z,0.30
2023-05-17T16:30:54.484Z,0.40
2023-05-17T16:33:22.498Z,0.40
2023-05-17T16:35:52.048Z,0.40
2023-05-17T16:38:19.911Z,0.50
2023-05-17T16:40:47.849Z,0.40
2023-05-17T16:43:16.288Z,0.40
2023-05-17T16:45:45.235Z,0.40
2023-05-17T16:48:15.659Z,0.40
2023-05-17T16:50:43.794Z,0.40
2023-05-17T16:53:12.044Z,0.50
2023-05-17T16:55:39.951Z,0.40
2023-05-17T16:58:07.832Z,0.40
2023-05-17T17:00:36.099Z,0.33
2023-05-17T17:03:05.940Z,0.40
2023-05-17T17:05:37.664Z,0.40
2023-05-17T17:08:05.568Z,0.47
2023-05-17T17:10:34.704Z,0.40
2023-05-17T17:13:03.607Z,0.50
2023-05-17T17:15:31.637Z,0.57
2023-05-17T17:17:59.670Z,0.90
2023-05-17T17:20:27.670Z,0.90
2023-05-17T17:22:57.009Z,1.00
2023-05-17T17:25:25.125Z,2.43
2023-05-17T17:27:53.386Z,3.53
2023-05-17T17:30:21.348Z,3.07
2023-05-17T17:32:49.297Z,2.20
2023-05-17T17:35:17.213Z,1.97
2023-05-17T17:37:45.175Z,1.63
2023-05-17T17:40:14.635Z,1.50
2023-05-17T17:42:42.492Z,1.40
2023-05-17T17:45:11.256Z,1.30
2023-05-17T17:47:39.147Z,1.60
2023-05-17T17:50:08.344Z,1.47
2023-05-17T17:52:37.280Z,1.37
2023-05-17T17:55:06.113Z,1.00
2023-05-17T17:57:35.329Z,0.80
2023-05-17T18:00:04.262Z,1.07
2023-05-17T18:02:32.193Z,0.70
2023-05-17T18:05:00.240Z,0.67
2023-05-17T18:07:28.192Z,0.80
2023-05-17T18:09:57.023Z,0.80
2023-05-17T18:12:27.161Z,0.70
2023-05-17T18:14:56.602Z,0.70
2023-05-17T18:17:24.747Z,0.60
2023-05-17T18:19:53.943Z,0.80
2023-05-17T18:22:21.860Z,1.37
2023-05-17T18:24:52.736Z,2.37
2023-05-17T18:27:20.584Z,2.13
2023-05-17T18:29:48.431Z,2.00
2023-05-17T18:32:17.853Z,1.47
2023-05-17T18:34:45.836Z,1.30
2023-05-17T18:37:13.698Z,0.90
2023-05-17T18:39:41.616Z,0.90
2023-05-17T18:42:09.520Z,0.77
2023-05-17T18:44:37.403Z,0.70
2023-05-17T18:47:06.195Z,0.60
2023-05-17T18:49:36.397Z,0.87
2023-05-17T18:52:04.378Z,0.60
2023-05-17T18:54:32.302Z,1.10
2023-05-17T18:57:00.202Z,2.33
2023-05-17T18:59:28.049Z,2.40
2023-05-17T19:01:57.255Z,2.63
2023-05-17T19:04:25.357Z,3.20
2023-05-17T19:06:54.711Z,3.30
2023-05-17T19:09:22.588Z,2.37
2023-05-17T19:11:50.531Z,2.00
2023-05-17T19:14:18.447Z,1.53
2023-05-17T19:16:46.560Z,1.30
2023-05-17T19:19:14.639Z,1.20
2023-05-17T19:21:42.666Z,1.20
2023-05-17T19:24:11.957Z,0.90
2023-05-17T19:26:39.817Z,1.10
2023-05-17T19:29:07.713Z,1.33
2023-05-17T19:31:35.641Z,1.00
2023-05-17T19:34:03.513Z,0.83
2023-05-17T19:36:31.339Z,0.90
2023-05-17T19:38:59.249Z,0.80
2023-05-17T19:41:28.544Z,0.80
2023-05-17T19:43:56.464Z,0.50
2023-05-17T19:46:24.387Z,0.70
2023-05-17T19:48:52.920Z,0.50
2023-05-17T19:51:23.224Z,0.80
2023-05-17T19:53:53.906Z,0.70
2023-05-17T19:56:24.143Z,0.60
2023-05-17T19:58:54.162Z,0.60
2023-05-17T20:01:22.582Z,0.60
2023-05-17T20:03:50.665Z,0.70
2023-05-17T20:06:18.858Z,0.70
2023-05-17T20:08:46.998Z,0.70
2023-05-17T20:11:15.777Z,0.77
2023-05-17T20:13:43.629Z,0.60
2023-05-17T20:16:13.640Z,0.73
2023-05-17T20:18:42.755Z,0.80
2023-05-17T20:21:11.392Z,0.63
2023-05-17T20:23:39.303Z,0.70
2023-05-17T20:26:07.126Z,0.77
2023-05-17T20:28:35.000Z,0.60
2023-05-17T20:31:02.918Z,0.70
2023-05-17T20:33:32.157Z,0.80
2023-05-17T20:36:00.067Z,0.80
2023-05-17T20:38:28.022Z,0.70
2023-05-17T20:40:55.904Z,1.00
2023-05-17T20:43:28.765Z,0.80
2023-05-17T20:45:56.809Z,0.70
2023-05-17T20:48:24.700Z,0.70
2023-05-17T20:50:53.936Z,0.70
2023-05-17T20:53:21.757Z,0.70
2023-05-17T20:55:49.605Z,0.80
2023-05-17T20:58:17.492Z,0.70
2023-05-17T21:00:47.349Z,0.60
2023-05-17T21:03:15.341Z,0.70
2023-05-17T21:05:44.486Z,1.00
2023-05-17T21:08:14.067Z,0.90
2023-05-17T21:10:42.856Z,1.00
2023-05-17T21:13:12.423Z,0.90
2023-05-17T21:15:40.322Z,1.00
2023-05-17T21:18:09.029Z,0.90
2023-05-17T21:20:37.191Z,1.00
2023-05-17T21:23:05.055Z,1.00
2023-05-17T21:25:35.913Z,1.20
2023-05-17T21:28:03.741Z,1.30
2023-05-17T21:30:31.974Z,1.20
2023-05-17T21:33:00.043Z,1.23
2023-05-17T21:35:27.878Z,1.07
2023-05-17T21:37:55.767Z,0.87
2023-05-17T21:40:23.632Z,1.00
2023-05-17T21:42:52.885Z,1.10
2023-05-17T21:45:20.797Z,1.10
2023-05-17T21:47:48.698Z,1.10
2023-05-17T21:50:16.809Z,1.10
2023-05-17T21:52:44.724Z,1.10
2023-05-17T21:55:12.620Z,1.13
2023-05-17T21:57:40.476Z,1.10
2023-05-17T22:00:12.668Z,1.10
2023-05-17T22:02:41.200Z,1.10
2023-05-17T22:05:09.696Z,1.00
2023-05-17T22:07:37.710Z,1.00
2023-05-17T22:10:08.046Z,1.27
2023-05-17T22:12:38.386Z,1.00
2023-05-17T22:15:07.532Z,1.10
2023-05-17T22:17:47.907Z,0.90
2023-05-17T22:20:23.553Z,0.80
2023-05-17T22:22:51.693Z,0.93
2023-05-17T22:25:19.538Z,1.00
2023-05-17T22:27:47.976Z,1.00
2023-05-17T22:30:16.065Z,0.90
2023-05-17T22:32:45.270Z,0.90
2023-05-17T22:35:13.202Z,0.90
2023-05-17T22:37:42.896Z,1.00
2023-05-17T22:40:11.960Z,1.00
2023-05-17T22:42:39.839Z,0.90
2023-05-17T22:45:08.173Z,0.90
2023-05-17T22:47:36.231Z,0.90
2023-05-17T22:50:06.309Z,1.10
2023-05-17T22:52:34.224Z,1.03
2023-05-17T22:55:02.475Z,1.00
2023-05-17T22:57:30.318Z,0.97
2023-05-17T22:59:58.183Z,1.00
2023-05-17T23:02:26.060Z,0.80
2023-05-17T23:04:53.978Z,0.97
2023-05-17T23:07:23.368Z,0.97
2023-05-17T23:09:51.283Z,0.80
2023-05-17T23:12:19.117Z,0.97
2023-05-17T23:14:47.449Z,0.80
2023-05-17T23:17:15.831Z,1.00
2023-05-17T23:19:43.757Z,0.70
2023-05-17T23:22:11.621Z,0.80
2023-05-17T23:24:40.863Z,0.87
2023-05-17T23:27:09.947Z,0.90
2023-05-17T23:29:41.368Z,0.90
2023-05-17T23:32:09.266Z,0.80
2023-05-17T23:34:37.128Z,0.90
2023-05-17T23:37:05.037Z,0.83
2023-05-17T23:39:32.902Z,0.90
2023-05-17T23:42:02.129Z,1.00
2023-05-17T23:44:30.590Z,0.90
2023-05-17T23:46:59.974Z,0.80
2023-05-17T23:49:27.808Z,1.00
2023-05-17T23:51:56.281Z,0.90
2023-05-17T23:54:24.425Z,1.00
2023-05-17T23:56:52.287Z,1.00
2023-05-17T23:59:24.334Z,0.93
